Vienna, Austria

11:40 AM CET on December 08, 2016 (GMT +0100)
Schwechat | | Change Station

Elev 600 ft 48.11 °N, 16.57 °E | Updated 20 minutes ago

Overcast
Overcast
28 °F
Feels Like 25 °F
N
4
Wind Variable Wind from SE

Today
High -- | Low -- °F
--% Chance of Precip.
Yesterday
High -- | Low -- °F
Precip. -- in
Pressure 30.57 in
Visibility 1.3 miles
Clouds Few 200 ft
Overcast 300 ft
Windchill 25 °F
Dew Point 28 °F
Humidity 100%
Rainfall 0.00 in
Snow Depth Not available.
7:31 AM 4:00 PM
Waxing Gibbous, 62% visible
METAR LOWW 081020Z 14003KT 110V180 2100 R16/P1500N R29/P1500U FZBR FEW002 OVC003 M02/M02 Q1035 WS ALL RWY NOSIG
Pressure 30.57 in
Visibility 1.3 miles
Clouds Few 200 ft
Overcast 300 ft
Windchill 25 °F
Dew Point 28 °F
Humidity 100%
Rainfall 0.00 in
Snow Depth Not available.
7:31 AM 4:00 PM
Waxing Gibbous, 62% visible
METAR LOWW 081020Z 14003KT 110V180 2100 R16/P1500N R29/P1500U FZBR FEW002 OVC003 M02/M02 Q1035 WS ALL RWY NOSIG

10-Day Weather Forecast

×

Almanac

Astronomy

Dec. 08, 2016 Rise Set
Actual Time
Civil Twilight
Nautical Twilight
Astronomical Twilight
Moon
Length of Visible Light
Length of Day
Tomorrow will be .
, % of the Moon is Illuminated

Today's Extremes

Country Highs Country Lows

Community

WunderPhotos

Upload Photos

1,956,261 photos uploaded!

WunderBlog® & News

Nearby

Air Quality

  Air Quality AQ Index Pollutant
Not available.

Snow Depth

Station Depth Elevation

Earthquake Activity

City Distance Mag. Time & Date
Minimum magnitude displayed is 2.5.

Coastal Water Temperatures

Place Temperature

Stations

Nearby Weather Stations

Station Location Temp. Windchill Dew Point Humidity Wind Precip. Elev Updated Type